createdAt,value
2023-04-27T00:01:13.821Z,2.70
2023-04-27T00:03:41.916Z,4.03
2023-04-27T00:06:10.037Z,2.80
2023-04-27T00:08:37.114Z,2.70
2023-04-27T00:11:03.954Z,2.93
2023-04-27T00:13:30.728Z,2.37
2023-04-27T00:15:57.478Z,2.30
2023-04-27T00:18:24.179Z,2.40
2023-04-27T00:20:50.768Z,2.60
2023-04-27T00:23:17.471Z,2.60
2023-04-27T00:25:44.190Z,2.90
2023-04-27T00:28:10.766Z,2.33
2023-04-27T00:30:37.341Z,2.80
2023-04-27T00:33:04.101Z,2.53
2023-04-27T00:35:32.470Z,3.00
2023-04-27T00:37:59.313Z,2.80
2023-04-27T00:40:26.227Z,2.57
2023-04-27T00:42:52.832Z,2.33
2023-04-27T00:45:19.462Z,2.47
2023-04-27T00:47:46.381Z,2.80
2023-04-27T00:53:08.154Z,2.70
2023-04-27T00:55:34.795Z,2.90
2023-04-27T00:58:01.530Z,3.13
2023-04-27T01:00:28.410Z,2.50
2023-04-27T01:02:55.947Z,2.43
2023-04-27T01:05:25.632Z,2.50
2023-04-27T01:07:52.223Z,2.83
2023-04-27T01:10:18.817Z,2.87
2023-04-27T01:12:45.462Z,2.37
2023-04-27T01:15:12.001Z,2.70
2023-04-27T01:17:39.147Z,2.77
2023-04-27T01:20:07.745Z,2.80
2023-04-27T01:22:34.454Z,3.03
2023-04-27T01:25:01.299Z,3.13
2023-04-27T01:27:27.833Z,2.80
2023-04-27T01:29:54.340Z,3.43
2023-04-27T01:32:21.365Z,2.87
2023-04-27T01:34:47.975Z,2.60
2023-04-27T01:37:15.885Z,2.80
2023-04-27T01:39:42.498Z,3.63
2023-04-27T01:42:09.304Z,3.00
2023-04-27T01:44:35.944Z,3.17
2023-04-27T01:47:02.534Z,2.87
2023-04-27T01:49:29.092Z,2.90
2023-04-27T01:51:55.722Z,3.50
2023-04-27T01:54:22.357Z,3.30
2023-04-27T01:56:48.940Z,3.53
2023-04-27T01:59:15.692Z,3.03
2023-04-27T02:01:42.505Z,3.03
2023-04-27T02:04:09.246Z,3.83
2023-04-27T02:06:36.455Z,3.60
2023-04-27T02:09:03.059Z,2.97
2023-04-27T02:11:29.680Z,3.47
2023-04-27T02:13:56.276Z,3.00
2023-04-27T02:16:22.974Z,2.90
2023-04-27T02:18:50.515Z,3.17
2023-04-27T02:21:17.231Z,3.37
2023-04-27T02:23:43.860Z,2.93
2023-04-27T02:26:17.231Z,3.43
2023-04-27T02:28:43.791Z,2.97
2023-04-27T02:31:11.533Z,2.50
2023-04-27T02:33:38.113Z,2.33
2023-04-27T02:36:04.935Z,2.63
2023-04-27T02:38:31.587Z,2.80
2023-04-27T02:40:58.174Z,3.00
2023-04-27T02:43:24.964Z,2.50
2023-04-27T02:45:51.632Z,3.13
2023-04-27T02:48:18.376Z,3.27
2023-04-27T02:50:45.606Z,3.90
2023-04-27T02:53:12.590Z,2.83
2023-04-27T02:55:45.749Z,2.47
2023-04-27T02:58:13.484Z,3.10
2023-04-27T03:00:41.192Z,3.10
2023-04-27T03:03:08.334Z,3.03
2023-04-27T03:05:35.072Z,3.00
2023-04-27T03:08:01.760Z,2.50
2023-04-27T03:10:28.407Z,2.87
2023-04-27T03:12:54.988Z,3.00
2023-04-27T03:15:21.696Z,2.53
2023-04-27T03:17:48.350Z,2.73
2023-04-27T03:20:15.434Z,2.67
2023-04-27T03:22:41.998Z,3.70
2023-04-27T03:25:08.889Z,6.40
2023-04-27T03:27:35.623Z,5.40
2023-04-27T03:30:03.712Z,3.03
2023-04-27T03:32:30.448Z,3.20
2023-04-27T03:34:57.247Z,2.53
2023-04-27T03:37:23.853Z,3.40
2023-04-27T03:39:50.421Z,2.77
2023-04-27T03:42:17.045Z,2.13
2023-04-27T03:44:43.636Z,2.43
2023-04-27T03:47:10.679Z,2.80
2023-04-27T03:49:37.266Z,3.13
2023-04-27T03:52:04.135Z,2.93
2023-04-27T03:54:33.676Z,3.67
2023-04-27T03:57:00.276Z,33.23
2023-04-27T03:59:30.020Z,3.70
2023-04-27T04:01:59.528Z,4.20
2023-04-27T04:04:27.938Z,2.70
2023-04-27T04:06:54.726Z,2.87
2023-04-27T04:09:23.701Z,3.17
2023-04-27T04:11:52.146Z,2.80
2023-04-27T04:14:18.743Z,3.17
2023-04-27T04:16:45.297Z,3.20
2023-04-27T04:19:12.281Z,3.20
2023-04-27T04:21:38.933Z,3.17
2023-04-27T04:24:06.197Z,3.70
2023-04-27T04:26:33.720Z,3.83
2023-04-27T04:29:00.258Z,4.07
2023-04-27T04:31:27.838Z,3.87
2023-04-27T04:33:54.437Z,3.63
2023-04-27T04:36:20.993Z,3.73
2023-04-27T04:38:47.548Z,3.80
2023-04-27T04:41:14.287Z,3.47
2023-04-27T04:43:41.096Z,4.07
2023-04-27T04:46:07.826Z,4.27
2023-04-27T04:48:34.772Z,4.27
2023-04-27T04:51:01.399Z,4.20
2023-04-27T04:53:27.994Z,4.00
2023-04-27T04:55:54.673Z,4.30
2023-04-27T04:58:21.243Z,4.30
2023-04-27T05:00:47.820Z,4.00
2023-04-27T05:03:14.456Z,4.03
2023-04-27T05:05:41.256Z,4.40
2023-04-27T05:08:07.840Z,5.23
2023-04-27T05:10:34.414Z,4.90
2023-04-27T05:13:00.926Z,4.20
2023-04-27T05:15:27.531Z,6.23
2023-04-27T05:17:54.543Z,4.43
2023-04-27T05:20:21.539Z,4.80
2023-04-27T05:22:48.129Z,4.27
2023-04-27T05:25:14.750Z,4.37
2023-04-27T05:27:41.318Z,4.87
2023-04-27T05:30:08.433Z,4.33
2023-04-27T05:32:37.019Z,3.90
2023-04-27T05:35:05.196Z,4.60
2023-04-27T05:37:31.784Z,3.93
2023-04-27T05:39:58.472Z,4.13
2023-04-27T05:42:25.036Z,5.03
2023-04-27T05:44:51.622Z,3.87
2023-04-27T05:47:18.248Z,3.90
2023-04-27T05:49:44.836Z,4.50
2023-04-27T05:52:11.552Z,4.37
2023-04-27T05:54:38.095Z,4.93
2023-04-27T05:57:04.673Z,3.97
2023-04-27T05:59:31.259Z,4.40
2023-04-27T06:01:57.922Z,4.10
2023-04-27T06:04:24.783Z,4.40
2023-04-27T06:06:51.448Z,5.03
2023-04-27T06:09:18.055Z,4.07
2023-04-27T06:11:44.988Z,4.23
2023-04-27T06:14:11.536Z,3.90
2023-04-27T06:16:38.289Z,3.77
2023-04-27T06:19:05.036Z,3.43
2023-04-27T06:21:33.735Z,3.63
2023-04-27T06:24:01.265Z,3.77
2023-04-27T06:26:28.359Z,4.90
2023-04-27T06:28:56.273Z,4.10
2023-04-27T06:31:22.993Z,3.73
2023-04-27T06:33:49.690Z,4.10
2023-04-27T06:36:16.342Z,3.10
2023-04-27T06:38:43.250Z,3.10
2023-04-27T06:41:09.876Z,3.57
2023-04-27T06:43:36.482Z,3.90
2023-04-27T06:46:03.235Z,3.03
2023-04-27T06:48:29.874Z,3.80
2023-04-27T06:50:56.729Z,4.20
2023-04-27T06:53:23.311Z,3.97
2023-04-27T06:55:51.172Z,3.90
2023-04-27T06:58:17.759Z,4.40
2023-04-27T07:00:44.432Z,3.70
2023-04-27T07:03:11.438Z,3.70
2023-04-27T07:05:38.156Z,4.03
2023-04-27T07:08:08.274Z,4.07
2023-04-27T07:10:35.647Z,4.10
2023-04-27T07:13:02.400Z,3.20
2023-04-27T07:15:30.582Z,3.03
2023-04-27T07:17:59.581Z,4.03
2023-04-27T07:20:26.980Z,3.80
2023-04-27T07:22:53.515Z,2.83
2023-04-27T07:25:23.030Z,3.00
2023-04-27T07:27:49.687Z,2.40
2023-04-27T07:30:17.567Z,2.40
2023-04-27T07:32:44.366Z,2.60
2023-04-27T07:35:11.128Z,2.43
2023-04-27T07:37:38.458Z,2.13
2023-04-27T07:40:17.033Z,2.70
2023-04-27T07:42:43.714Z,2.07
2023-04-27T07:45:10.788Z,2.80
2023-04-27T07:47:38.279Z,3.43
2023-04-27T07:50:07.510Z,2.13
2023-04-27T07:52:34.267Z,2.03
2023-04-27T07:55:00.831Z,3.50
2023-04-27T07:57:27.564Z,3.03
2023-04-27T07:59:54.120Z,2.40
2023-04-27T08:02:20.759Z,2.07
2023-04-27T08:04:48.789Z,2.30
2023-04-27T08:07:17.651Z,2.60
2023-04-27T08:09:44.665Z,2.80
2023-04-27T08:12:11.462Z,2.63
2023-04-27T08:14:38.014Z,1.80
2023-04-27T08:17:04.761Z,1.83
2023-04-27T08:19:31.525Z,1.97
2023-04-27T08:21:58.147Z,2.27
2023-04-27T08:24:24.812Z,2.80
2023-04-27T08:26:51.501Z,2.80
2023-04-27T08:29:26.985Z,2.50
2023-04-27T08:31:56.866Z,2.40
2023-04-27T08:34:24.118Z,2.50
2023-04-27T08:36:50.863Z,2.17
2023-04-27T08:39:18.565Z,2.40
2023-04-27T08:41:45.440Z,2.07
2023-04-27T08:44:12.405Z,2.10
2023-04-27T08:46:39.459Z,2.40
2023-04-27T08:49:07.832Z,2.03
2023-04-27T08:51:34.988Z,2.23
2023-04-27T08:54:02.218Z,2.20
2023-04-27T08:56:29.781Z,2.10
2023-04-27T08:58:57.449Z,2.20
2023-04-27T09:01:26.272Z,2.10
2023-04-27T09:03:57.702Z,2.33
2023-04-27T09:06:35.664Z,1.53
2023-04-27T09:09:03.485Z,1.80
2023-04-27T09:11:35.473Z,2.07
2023-04-27T09:14:03.968Z,2.17
2023-04-27T09:16:31.379Z,2.33
2023-04-27T09:18:59.337Z,1.87
2023-04-27T09:21:28.271Z,2.10
2023-04-27T09:23:55.972Z,1.70
2023-04-27T09:26:27.448Z,2.20
2023-04-27T09:28:58.050Z,2.37
2023-04-27T09:31:35.537Z,2.03
2023-04-27T09:34:03.014Z,1.67
2023-04-27T09:36:32.456Z,1.90
2023-04-27T09:39:02.454Z,2.10
2023-04-27T09:41:29.637Z,1.70
2023-04-27T09:43:58.087Z,2.10
2023-04-27T09:46:26.068Z,2.10
2023-04-27T09:48:53.098Z,2.07
2023-04-27T09:51:19.631Z,1.80
2023-04-27T09:53:52.889Z,2.40
2023-04-27T09:56:51.265Z,2.07
2023-04-27T09:59:27.016Z,1.77
2023-04-27T10:02:07.219Z,2.00
2023-04-27T10:05:03.016Z,1.70
2023-04-27T10:07:31.554Z,9.90
2023-04-27T10:10:02.231Z,2.40
2023-04-27T10:12:36.372Z,2.50
2023-04-27T10:15:14.703Z,2.23
2023-04-27T10:17:49.179Z,2.00
2023-04-27T10:20:16.673Z,2.03
2023-04-27T10:22:50.313Z,2.47
2023-04-27T10:25:22.322Z,2.40
2023-04-27T10:27:54.813Z,2.13
2023-04-27T10:30:23.979Z,1.80
2023-04-27T10:32:55.189Z,1.60
2023-04-27T10:35:36.036Z,2.30
2023-04-27T10:38:06.414Z,2.50
2023-04-27T10:40:35.271Z,1.77
2023-04-27T10:43:13.050Z,2.20
2023-04-27T10:45:41.140Z,1.90
2023-04-27T10:48:08.264Z,2.10
2023-04-27T10:50:35.210Z,2.10
2023-04-27T10:53:07.687Z,1.70
2023-04-27T10:55:35.694Z,2.10
2023-04-27T10:58:03.869Z,2.57
2023-04-27T11:00:35.364Z,2.10
2023-04-27T11:03:12.707Z,2.30
2023-04-27T11:05:39.456Z,2.63
2023-04-27T11:08:07.154Z,2.13
2023-04-27T11:10:35.871Z,2.50
2023-04-27T11:13:11.543Z,2.00
2023-04-27T11:15:46.705Z,2.23
2023-04-27T11:18:13.971Z,2.20
2023-04-27T11:20:40.635Z,2.07
2023-04-27T11:23:08.116Z,2.33
2023-04-27T11:25:35.285Z,2.53
2023-04-27T11:28:01.856Z,2.33
2023-04-27T11:30:28.568Z,2.40
2023-04-27T11:32:55.319Z,2.40
2023-04-27T11:35:33.719Z,2.13
2023-04-27T11:38:00.433Z,2.50
2023-04-27T11:40:28.893Z,2.30
2023-04-27T11:42:59.498Z,2.67
2023-04-27T11:45:30.189Z,2.87
2023-04-27T11:47:59.957Z,2.30
2023-04-27T11:50:27.443Z,2.17
2023-04-27T11:52:54.154Z,2.50
2023-04-27T11:55:22.222Z,2.40
2023-04-27T11:57:49.209Z,3.00
2023-04-27T12:00:16.704Z,2.73
2023-04-27T12:02:44.434Z,2.63
2023-04-27T12:05:13.387Z,2.40
2023-04-27T12:07:41.354Z,2.40
2023-04-27T12:10:09.209Z,2.80
2023-04-27T12:12:36.235Z,2.43
2023-04-27T12:15:03.454Z,2.27
2023-04-27T12:17:30.259Z,2.47
2023-04-27T12:19:56.954Z,2.43
2023-04-27T12:22:23.613Z,2.03
2023-04-27T12:24:51.394Z,2.43
2023-04-27T12:27:18.086Z,2.00
2023-04-27T12:29:44.669Z,1.80
2023-04-27T12:32:11.506Z,2.13
2023-04-27T12:34:39.527Z,2.03
2023-04-27T12:37:06.737Z,2.00
2023-04-27T12:39:33.396Z,2.37
2023-04-27T12:42:00.071Z,2.50
2023-04-27T12:44:27.155Z,2.70
2023-04-27T12:46:54.111Z,3.20
2023-04-27T12:49:20.854Z,2.47
2023-04-27T12:51:48.160Z,2.67
2023-04-27T12:54:15.085Z,2.90
2023-04-27T12:56:42.465Z,2.77
2023-04-27T12:59:09.570Z,2.60
2023-04-27T13:01:36.399Z,2.43
2023-04-27T13:04:04.238Z,2.73
2023-04-27T13:06:34.738Z,2.67
2023-04-27T13:09:02.669Z,2.13
2023-04-27T13:11:29.670Z,2.40
2023-04-27T13:13:56.316Z,2.47
2023-04-27T13:16:25.656Z,3.50
2023-04-27T13:18:55.652Z,2.90
2023-04-27T13:21:22.609Z,3.20
2023-04-27T13:23:49.520Z,3.07
2023-04-27T13:26:16.611Z,3.33
2023-04-27T13:28:43.273Z,2.67
2023-04-27T13:31:10.371Z,3.80
2023-04-27T13:33:42.289Z,3.73
2023-04-27T13:36:10.441Z,3.93
2023-04-27T13:38:37.649Z,4.70
2023-04-27T13:41:05.268Z,3.83
2023-04-27T13:43:31.985Z,3.60
2023-04-27T13:46:01.082Z,3.13
2023-04-27T13:48:28.890Z,3.57
2023-04-27T13:50:56.140Z,4.17
2023-04-27T13:53:25.966Z,3.50
2023-04-27T13:55:57.340Z,3.77
2023-04-27T13:58:26.243Z,4.53
2023-04-27T14:00:53.926Z,3.00
2023-04-27T14:03:20.928Z,4.20
2023-04-27T14:05:49.161Z,3.37
2023-04-27T14:08:16.121Z,5.03
2023-04-27T14:10:43.200Z,3.97
2023-04-27T14:13:11.593Z,3.57
2023-04-27T14:15:38.214Z,3.53
2023-04-27T14:18:06.369Z,2.70
2023-04-27T14:20:34.566Z,2.50
2023-04-27T14:23:02.009Z,2.17
2023-04-27T14:25:32.903Z,2.10
2023-04-27T14:28:01.061Z,1.88
2023-04-27T14:30:27.922Z,2.20
2023-04-27T14:32:54.675Z,1.95
2023-04-27T14:35:21.539Z,2.47
2023-04-27T14:37:48.157Z,2.05
2023-04-27T14:40:15.147Z,1.98
2023-04-27T14:42:41.938Z,1.73
2023-04-27T14:45:09.306Z,2.15
2023-04-27T14:47:36.107Z,1.90
2023-04-27T14:50:03.632Z,2.38
2023-04-27T14:52:30.291Z,2.38
2023-04-27T14:54:57.141Z,2.45
2023-04-27T14:57:23.860Z,2.10
2023-04-27T14:59:50.505Z,2.93
2023-04-27T15:02:18.913Z,2.27
2023-04-27T15:04:45.990Z,2.60
2023-04-27T15:07:12.861Z,2.60
2023-04-27T15:09:39.464Z,3.30
2023-04-27T15:12:08.120Z,2.90
2023-04-27T15:14:34.729Z,3.47
2023-04-27T15:17:01.378Z,2.73
2023-04-27T15:19:28.076Z,2.90
2023-04-27T15:21:54.713Z,3.10
2023-04-27T15:24:21.422Z,3.70
2023-04-27T15:26:48.659Z,3.80
2023-04-27T15:29:15.489Z,4.43
2023-04-27T15:31:42.358Z,3.60
2023-04-27T15:34:08.937Z,4.17
2023-04-27T15:36:35.510Z,3.83
2023-04-27T15:39:02.091Z,3.87
2023-04-27T15:41:28.834Z,3.43
2023-04-27T15:43:55.618Z,3.37
2023-04-27T15:46:22.240Z,3.50
2023-04-27T15:48:48.857Z,3.83
2023-04-27T15:51:15.578Z,3.73
2023-04-27T15:53:42.273Z,3.33
2023-04-27T15:56:09.162Z,3.90
2023-04-27T15:58:36.017Z,3.80
2023-04-27T16:01:02.649Z,4.47
2023-04-27T16:03:29.387Z,3.57
2023-04-27T16:05:56.129Z,4.03
2023-04-27T16:08:22.859Z,4.17
2023-04-27T16:10:49.853Z,4.00
2023-04-27T16:13:17.172Z,3.80
2023-04-27T16:15:44.133Z,5.03
2023-04-27T16:18:11.481Z,4.13
2023-04-27T16:20:38.094Z,3.57
2023-04-27T16:23:04.734Z,3.83
2023-04-27T16:25:31.428Z,3.93
2023-04-27T16:27:59.139Z,4.30
2023-04-27T16:30:25.918Z,3.90
2023-04-27T16:32:53.038Z,3.97
2023-04-27T16:35:19.771Z,3.60
2023-04-27T16:37:46.504Z,4.10
2023-04-27T16:40:13.317Z,4.57
2023-04-27T16:42:39.939Z,4.30
2023-04-27T16:45:09.177Z,4.40
2023-04-27T16:47:37.349Z,4.13
2023-04-27T16:50:04.374Z,4.40
2023-04-27T16:52:31.227Z,4.70
2023-04-27T16:54:57.996Z,4.00
2023-04-27T16:57:24.743Z,4.93
2023-04-27T16:59:51.676Z,6.40
2023-04-27T17:02:25.328Z,5.03
2023-04-27T17:04:53.390Z,4.97
2023-04-27T17:07:19.997Z,4.87
2023-04-27T17:09:46.585Z,5.07
2023-04-27T17:12:14.918Z,4.30
2023-04-27T17:14:42.728Z,5.40
2023-04-27T17:17:10.627Z,5.17
2023-04-27T17:19:37.357Z,5.20
2023-04-27T17:22:04.703Z,6.23
2023-04-27T17:24:31.265Z,5.40
2023-04-27T17:26:57.877Z,5.37
2023-04-27T17:29:24.649Z,5.40
2023-04-27T17:31:51.359Z,5.10
2023-04-27T17:34:18.221Z,6.30
2023-04-27T17:36:46.069Z,5.80
2023-04-27T17:39:13.986Z,5.50
2023-04-27T17:41:41.110Z,6.13
2023-04-27T17:44:07.915Z,4.93
2023-04-27T17:46:34.636Z,5.27
2023-04-27T17:49:01.540Z,5.27
2023-04-27T17:51:28.194Z,5.30
2023-04-27T17:53:54.870Z,5.17
2023-04-27T17:56:21.512Z,5.47
2023-04-27T17:58:48.157Z,5.07
2023-04-27T18:01:14.832Z,4.93
2023-04-27T18:03:42.404Z,4.70
2023-04-27T18:06:11.616Z,6.47
2023-04-27T18:08:38.189Z,6.00
2023-04-27T18:11:04.862Z,5.17
2023-04-27T18:13:32.672Z,5.10
2023-04-27T18:15:59.933Z,5.17
2023-04-27T18:18:27.035Z,5.47
2023-04-27T18:20:53.885Z,17.10
2023-04-27T18:23:21.211Z,11.03
2023-04-27T18:25:49.386Z,4.93
2023-04-27T18:28:16.398Z,5.33
2023-04-27T18:30:42.918Z,5.63
2023-04-27T18:33:09.533Z,4.87
2023-04-27T18:35:36.211Z,5.20
2023-04-27T18:38:03.649Z,5.70
2023-04-27T18:40:30.575Z,4.97
2023-04-27T18:42:57.199Z,5.27
2023-04-27T18:45:23.939Z,5.13
2023-04-27T18:47:50.733Z,5.40
2023-04-27T18:50:17.659Z,4.87
2023-04-27T18:52:44.291Z,5.60
2023-04-27T18:55:11.424Z,5.00
2023-04-27T18:57:38.046Z,5.47
2023-04-27T19:00:05.952Z,26.13
2023-04-27T19:02:33.151Z,7.47
2023-04-27T19:05:11.014Z,5.30
2023-04-27T19:07:39.366Z,5.53
2023-04-27T19:10:06.831Z,4.97
2023-04-27T19:12:33.473Z,5.57
2023-04-27T19:15:00.063Z,5.90
2023-04-27T19:17:27.427Z,5.70
2023-04-27T19:19:54.514Z,5.23
2023-04-27T19:22:21.145Z,5.70
2023-04-27T19:24:48.172Z,5.93
2023-04-27T19:27:14.799Z,5.43
2023-04-27T19:29:52.702Z,5.77
2023-04-27T19:32:19.872Z,5.90
2023-04-27T19:34:47.340Z,6.27
2023-04-27T19:37:14.139Z,5.43
2023-04-27T19:39:40.743Z,6.20
2023-04-27T19:42:07.544Z,7.13
2023-04-27T19:44:34.171Z,7.17
2023-04-27T19:47:00.883Z,6.63
2023-04-27T19:49:31.114Z,7.10
2023-04-27T19:51:57.687Z,8.47
2023-04-27T19:54:24.229Z,7.93
2023-04-27T19:56:50.775Z,7.10
2023-04-27T19:59:17.377Z,7.80
2023-04-27T20:01:44.144Z,7.50
2023-04-27T20:04:11.166Z,9.00
2023-04-27T20:06:37.863Z,8.07
2023-04-27T20:09:04.601Z,7.93
2023-04-27T20:11:31.202Z,7.27
2023-04-27T20:13:57.775Z,7.10
2023-04-27T20:16:25.834Z,8.60
2023-04-27T20:18:53.020Z,8.37
2023-04-27T20:21:21.590Z,8.87
2023-04-27T20:23:48.979Z,8.20
2023-04-27T20:26:15.628Z,7.60
2023-04-27T20:28:42.806Z,7.63
2023-04-27T20:31:09.698Z,7.70
2023-04-27T20:33:36.464Z,8.80
2023-04-27T20:36:14.196Z,8.93
2023-04-27T20:38:46.190Z,9.37
2023-04-27T20:41:12.879Z,9.87
2023-04-27T20:43:40.323Z,10.57
2023-04-27T20:46:16.645Z,10.57
2023-04-27T20:48:43.457Z,11.07
2023-04-27T20:51:10.094Z,13.37
2023-04-27T20:53:36.996Z,21.83
2023-04-27T20:56:03.940Z,19.83
2023-04-27T20:58:30.567Z,25.93
2023-04-27T21:00:57.204Z,33.80
2023-04-27T21:03:24.087Z,33.50
2023-04-27T21:05:50.972Z,28.23
2023-04-27T21:08:17.558Z,24.70
2023-04-27T21:10:44.819Z,21.70
2023-04-27T21:13:11.414Z,20.10
2023-04-27T21:15:38.706Z,15.33
2023-04-27T21:18:09.377Z,12.87
2023-04-27T21:20:37.845Z,13.33
2023-04-27T21:23:05.587Z,16.67
2023-04-27T21:25:32.176Z,18.87
2023-04-27T21:27:59.232Z,11.50
2023-04-27T21:30:25.944Z,10.77
2023-04-27T21:32:52.594Z,13.13
2023-04-27T21:35:19.398Z,12.27
2023-04-27T21:37:46.144Z,11.00
2023-04-27T21:40:13.082Z,11.37
2023-04-27T21:42:39.615Z,11.30
2023-04-27T21:45:06.823Z,10.43
2023-04-27T21:47:33.482Z,10.40
2023-04-27T21:50:00.161Z,10.40
2023-04-27T21:52:26.754Z,9.37
2023-04-27T21:54:53.424Z,10.37
2023-04-27T21:57:20.272Z,10.10
2023-04-27T21:59:46.888Z,8.50
2023-04-27T22:02:13.723Z,9.33
2023-04-27T22:04:40.438Z,9.17
2023-04-27T22:07:10.530Z,8.87
2023-04-27T22:09:37.303Z,9.30
2023-04-27T22:12:04.410Z,8.53
2023-04-27T22:14:31.564Z,10.23
2023-04-27T22:17:00.912Z,9.27
2023-04-27T22:19:28.886Z,10.20
2023-04-27T22:21:55.624Z,9.07
2023-04-27T22:24:22.365Z,9.50
2023-04-27T22:26:49.045Z,10.03
2023-04-27T22:29:16.670Z,9.70
2023-04-27T22:31:44.576Z,10.67
2023-04-27T22:34:14.784Z,30.30
2023-04-27T22:36:41.602Z,26.20
2023-04-27T22:39:08.594Z,17.37
2023-04-27T22:41:35.328Z,14.03
2023-04-27T22:44:01.943Z,10.37
2023-04-27T22:46:28.485Z,10.20
2023-04-27T22:48:55.148Z,9.87
2023-04-27T22:51:21.915Z,10.00
2023-04-27T22:53:48.821Z,10.10
2023-04-27T22:56:15.405Z,9.50
2023-04-27T22:58:42.194Z,8.77
2023-04-27T23:01:08.964Z,9.20
2023-04-27T23:03:35.798Z,8.77
2023-04-27T23:06:02.445Z,10.23
2023-04-27T23:08:29.653Z,9.10
2023-04-27T23:10:56.962Z,10.23
2023-04-27T23:13:27.711Z,10.57
2023-04-27T23:15:54.607Z,10.50
2023-04-27T23:18:21.520Z,10.30
2023-04-27T23:20:53.699Z,10.27
2023-04-27T23:23:20.432Z,10.10
2023-04-27T23:25:47.081Z,10.27
2023-04-27T23:28:13.673Z,10.47
2023-04-27T23:30:40.428Z,10.03
2023-04-27T23:33:07.328Z,9.83
2023-04-27T23:35:34.048Z,9.93
2023-04-27T23:38:00.744Z,9.83
2023-04-27T23:40:27.348Z,9.73
2023-04-27T23:42:53.912Z,9.70
2023-04-27T23:45:21.078Z,10.83
2023-04-27T23:47:47.706Z,9.80
2023-04-27T23:50:14.376Z,9.83
2023-04-27T23:52:40.931Z,10.67
2023-04-27T23:55:08.011Z,9.60
2023-04-27T23:57:34.614Z,10.93
